Time;durP1;ratioP1;P1;durP2;ratioP2;P2;SDS_P1;SDS_P2;PMS_P1;PMS_P2;Temp;Humidity;BMP_temperature;BMP_pressure;BME280_temperature;BME280_humidity;BME280_pressure;Samples;Min_cycle;Max_cycle;Signal;HPM_P1;HPM_P2
2022/06/14 00:00:55;;;;;;;12.98;11.30;;;;;;;17.00;100.00;96779.25;5022991;28;20064;-60
2022/06/14 00:03:34;;;;;;;12.38;10.75;;;;;;;17.33;100.00;96809.22;5023059;28;20057;-65
2022/06/14 00:06:05;;;;;;;18.27;10.90;;;;;;;16.89;100.00;96745.03;5023252;28;20060;-64
2022/06/14 00:08:32;;;;;;;15.18;10.93;;;;;;;17.29;100.00;96808.50;5025013;28;20287;-65
2022/06/14 00:11:04;;;;;;;17.27;11.20;;;;;;;17.27;100.00;96796.91;5026314;28;20073;-65
2022/06/14 00:13:31;;;;;;;11.60;10.40;;;;;;;17.06;100.00;96744.78;5026670;28;20076;-57
2022/06/14 00:15:58;;;;;;;16.75;11.20;;;;;;;17.19;100.00;96773.81;5026419;28;20053;-58
2022/06/14 00:18:24;;;;;;;15.48;10.77;;;;;;;17.43;100.00;96805.50;5026775;28;20080;-67
2022/06/14 00:20:52;;;;;;;14.63;10.60;;;;;;;17.45;100.00;96800.31;5026072;28;20080;-57
2022/06/14 00:23:19;;;;;;;17.02;10.70;;;;;;;17.35;100.00;96801.19;5026050;28;20496;-65
2022/06/14 00:25:51;;;;;;;13.32;11.90;;;;;;;17.14;100.00;96804.25;5026070;28;20053;-57
2022/06/14 00:28:18;;;;;;;16.50;11.57;;;;;;;17.18;100.00;96791.03;5026321;28;20057;-60
2022/06/14 00:30:49;;;;;;;13.10;10.52;;;;;;;17.18;100.00;96802.22;5026143;28;20064;-64
2022/06/14 00:33:18;;;;;;;17.70;11.45;;;;;;;17.17;100.00;96789.44;5026160;28;20053;-57
2022/06/14 00:35:45;;;;;;;20.10;11.43;;;;;;;16.98;100.00;96782.47;5026429;28;20053;-65
2022/06/14 00:38:13;;;;;;;14.13;10.98;;;;;;;17.11;100.00;96796.72;5026511;28;20057;-58
2022/06/14 00:40:49;;;;;;;14.48;11.30;;;;;;;17.10;100.00;96800.72;5026160;28;20053;-57
2022/06/14 00:43:17;;;;;;;17.20;11.38;;;;;;;17.07;100.00;96795.97;5041175;28;20065;-59
2022/06/14 00:45:44;;;;;;;14.15;12.07;;;;;;;17.08;100.00;96791.94;5026501;28;20401;-64
2022/06/14 00:48:29;;;;;;;13.85;11.15;;;;;;;17.06;100.00;96799.97;5025987;28;20077;-64
2022/06/14 00:51:13;;;;;;;18.30;12.30;;;;;;;17.09;100.00;96804.72;5025669;28;20060;-65
2022/06/14 00:53:49;;;;;;;15.55;11.23;;;;;;;17.04;100.00;96817.19;5025588;28;20519;-57
2022/06/14 00:56:23;;;;;;;17.90;11.57;;;;;;;16.59;100.00;96738.19;5025309;28;20056;-64
2022/06/14 00:59:01;;;;;;;16.85;11.70;;;;;;;17.00;100.00;96796.03;5006598;28;20057;-65
2022/06/14 01:01:34;;;;;;;13.88;11.98;;;;;;;17.10;100.00;96806.34;5006056;28;20898;-57
2022/06/14 01:04:16;;;;;;;13.53;11.00;;;;;;;16.76;100.00;96741.16;5006453;28;20058;-58
2022/06/14 01:06:51;;;;;;;13.90;10.80;;;;;;;17.11;100.00;96796.72;5004210;28;20806;-58
2022/06/14 01:09:28;;;;;;;18.13;11.25;;;;;;;16.88;100.00;96777.00;5005791;28;20068;-58
2022/06/14 01:12:03;;;;;;;15.45;11.00;;;;;;;16.98;100.00;96759.28;5005340;28;20546;-64
2022/06/14 01:15:00;;;;;;;12.68;10.77;;;;;;;17.00;100.00;96780.06;5004128;28;20444;-64
2022/06/14 01:17:28;;;;;;;14.32;10.30;;;;;;;17.09;100.00;96782.34;5005644;28;20476;-65
2022/06/14 01:19:55;;;;;;;16.73;10.25;;;;;;;16.86;100.00;96785.84;5005922;28;20050;-65
2022/06/14 01:22:22;;;;;;;16.83;11.40;;;;;;;16.82;100.00;96785.06;5004437;28;20062;-64
2022/06/14 01:24:49;;;;;;;14.23;11.20;;;;;;;16.77;100.00;96768.72;5004552;28;20295;-58
2022/06/14 01:27:19;;;;;;;16.40;10.85;;;;;;;16.89;100.00;96779.41;5005410;28;20046;-57
2022/06/14 01:29:54;;;;;;;12.02;10.40;;;;;;;16.73;100.00;96775.56;5020294;28;20053;-65
2022/06/14 01:32:22;;;;;;;15.15;10.45;;;;;;;16.77;100.00;96781.94;5005244;28;20053;-57
2022/06/14 01:34:55;;;;;;;13.23;11.25;;;;;;;16.60;100.00;96781.72;5004919;28;20131;-57
2022/06/14 01:37:22;;;;;;;13.07;11.20;;;;;;;16.29;100.00;96780.00;5005286;28;20057;-57
2022/06/14 01:39:49;;;;;;;16.40;11.55;;;;;;;16.40;100.00;96791.88;5003871;28;20058;-57
2022/06/14 01:42:31;;;;;;;15.15;12.10;;;;;;;16.03;100.00;96716.38;5004649;28;20559;-58
2022/06/14 01:45:07;;;;;;;16.58;12.57;;;;;;;16.46;100.00;96781.88;5005532;28;20046;-65
2022/06/14 01:47:48;;;;;;;17.23;12.68;;;;;;;16.53;100.00;96784.56;5005171;28;20061;-58
2022/06/14 01:53:41;;;;;;;19.35;12.98;;;;;;;16.68;100.00;96785.22;5004429;28;20065;-64
2022/06/14 01:56:11;;;;;;;17.80;12.10;;;;;;;16.59;100.00;96791.31;5004754;28;20061;-56
2022/06/14 01:59:03;;;;;;;15.93;11.77;;;;;;;16.72;100.00;96788.00;5019904;28;20061;-63
2022/06/14 02:01:37;;;;;;;18.17;11.10;;;;;;;16.68;100.00;96798.44;5024057;28;20060;-60
2022/06/14 02:07:05;;;;;;;15.95;11.85;;;;;;;16.69;100.00;96791.63;5024596;28;20042;-56
2022/06/14 02:09:37;;;;;;;16.90;11.90;;;;;;;16.64;100.00;96785.25;5024580;28;20064;-65
2022/06/14 02:12:08;;;;;;;17.30;12.30;;;;;;;16.63;100.00;96787.69;5022650;28;20068;-64
2022/06/14 02:15:12;;;;;;;14.98;12.80;;;;;;;16.69;100.00;96791.63;5039552;28;20049;-64
2022/06/14 02:18:07;;;;;;;16.98;12.55;;;;;;;16.53;100.00;96801.34;5024312;28;20080;-57
2022/06/14 02:20:43;;;;;;;18.08;11.20;;;;;;;16.58;100.00;96812.09;5023648;28;20049;-57
2022/06/14 02:23:10;;;;;;;18.48;12.55;;;;;;;16.53;100.00;96806.94;5024436;28;20057;-58
2022/06/14 02:25:56;;;;;;;13.35;10.85;;;;;;;16.51;100.00;96811.38;5024426;28;20050;-61
2022/06/14 02:28:33;;;;;;;17.17;11.38;;;;;;;16.41;100.00;96799.06;5024399;28;20053;-58
2022/06/14 02:31:07;;;;;;;16.45;11.27;;;;;;;16.27;100.00;96810.38;5022518;28;20479;-65
2022/06/14 02:33:46;;;;;;;12.98;10.65;;;;;;;15.91;100.00;96763.59;5023969;28;20076;-65
2022/06/14 02:36:16;;;;;;;12.82;10.65;;;;;;;16.17;100.00;96814.03;5023724;28;20053;-65
2022/06/14 02:38:50;;;;;;;16.70;10.82;;;;;;;15.81;100.00;96765.25;5022591;28;20054;-57
2022/06/14 02:41:22;;;;;;;14.57;10.77;;;;;;;16.16;100.00;96809.69;5024245;28;20530;-57
2022/06/14 02:43:55;;;;;;;19.25;11.50;;;;;;;16.10;100.00;96821.69;5024174;28;20501;-64
2022/06/14 02:46:32;;;;;;;15.13;11.30;;;;;;;16.19;100.00;96805.25;5022545;28;20119;-60
2022/06/14 02:49:11;;;;;;;15.10;11.68;;;;;;;15.99;100.00;96765.91;5023631;28;20457;-57
2022/06/14 02:51:44;;;;;;;15.40;10.73;;;;;;;15.67;100.00;96726.28;5023438;28;20046;-63
2022/06/14 02:54:22;;;;;;;14.80;10.30;;;;;;;15.97;100.00;96765.53;5023850;28;20057;-64
2022/06/14 02:57:33;;;;;;;17.10;11.60;;;;;;;16.07;100.00;96761.84;5023165;28;20057;-57
2022/06/14 03:00:02;;;;;;;17.77;10.93;;;;;;;16.31;100.00;96805.53;5004245;28;20107;-65
2022/06/14 03:02:43;;;;;;;12.68;10.95;;;;;;;16.39;100.00;96804.25;5002729;28;20064;-58
2022/06/14 03:05:33;;;;;;;13.57;11.35;;;;;;;16.17;100.00;96760.16;5002341;28;20050;-64
2022/06/14 03:08:25;;;;;;;14.55;10.88;;;;;;;16.55;100.00;96793.34;5003853;28;20058;-57
2022/06/14 03:11:07;;;;;;;17.27;11.45;;;;;;;16.59;100.00;96794.13;5002996;28;20052;-64
2022/06/14 03:13:47;;;;;;;13.98;10.32;;;;;;;16.73;100.00;96803.56;5003514;28;20635;-58
2022/06/14 03:16:48;;;;;;;13.50;10.40;;;;;;;16.68;100.00;96806.81;5018615;28;20050;-59
2022/06/14 03:19:25;;;;;;;17.40;11.32;;;;;;;16.35;100.00;96747.59;5002309;28;20057;-59
2022/06/14 03:22:04;;;;;;;19.60;11.80;;;;;;;14.98;100.00;96502.38;5002234;28;20058;-57
2022/06/14 03:24:57;;;;;;;15.48;11.90;;;;;;;17.05;100.00;96804.78;5003974;28;20054;-60
2022/06/14 03:27:47;;;;;;;12.55;11.25;;;;;;;17.13;100.00;96799.88;5003542;28;20064;-57
2022/06/14 03:30:21;;;;;;;18.90;11.82;;;;;;;17.18;100.00;96802.22;5002003;28;20054;-57
2022/06/14 03:33:01;;;;;;;16.38;11.10;;;;;;;17.28;100.00;96809.69;5003856;28;20049;-65
2022/06/14 03:35:35;;;;;;;14.82;12.15;;;;;;;17.35;100.00;96807.59;5003616;28;20065;-57
2022/06/14 03:38:08;;;;;;;14.60;10.82;;;;;;;17.45;100.00;96805.91;5003638;28;20061;-65
2022/06/14 03:40:35;;;;;;;15.35;10.88;;;;;;;17.59;100.00;96805.72;5003514;28;20093;-60
2022/06/14 03:43:03;;;;;;;13.95;10.90;;;;;;;17.61;100.00;96804.06;5007066;28;20057;-57
2022/06/14 03:45:48;;;;;;;16.73;11.90;;;;;;;17.79;100.00;96803.81;5005768;28;20052;-60
2022/06/14 03:48:14;;;;;;;14.63;11.23;;;;;;;17.84;100.00;96806.94;5007151;28;20058;-60
2022/06/14 03:51:08;;;;;;;16.70;11.50;;;;;;;17.98;100.00;96805.91;5007393;28;20107;-57
2022/06/14 03:54:04;;;;;;;13.23;11.10;;;;;;;18.05;100.00;96800.22;5007143;28;20405;-64
2022/06/14 03:56:42;;;;;;;11.82;10.20;;;;;;;17.89;99.91;96763.63;5006947;28;20057;-57
2022/06/14 03:59:34;;;;;;;17.05;10.73;;;;;;;18.07;99.55;96800.56;5025780;28;20068;-65
2022/06/14 04:02:15;;;;;;;12.40;10.13;;;;;;;18.11;98.77;96804.09;5026534;28;20060;-58
2022/06/14 04:04:51;;;;;;;14.60;10.02;;;;;;;18.11;98.26;96806.91;5026735;28;20530;-58
2022/06/14 04:07:38;;;;;;;15.52;10.45;;;;;;;18.06;98.33;96819.41;5026942;28;20053;-65
2022/06/14 04:10:12;;;;;;;12.63;9.52;;;;;;;17.81;100.00;96778.97;5027079;28;20061;-64
2022/06/14 04:12:58;;;;;;;11.25;9.93;;;;;;;18.30;98.79;96817.41;5024944;28;20077;-59
2022/06/14 04:15:47;;;;;;;12.70;9.73;;;;;;;18.43;98.09;96814.81;5026420;28;20598;-58
2022/06/14 04:18:35;;;;;;;18.55;9.65;;;;;;;18.48;98.43;96823.53;5026734;28;20474;-57
2022/06/14 04:21:14;;;;;;;11.32;9.55;;;;;;;18.72;97.56;96819.47;5024957;28;20503;-58
2022/06/14 04:24:11;;;;;;;13.85;10.20;;;;;;;18.83;97.81;96811.66;5026477;28;20050;-64
2022/06/14 04:26:48;;;;;;;14.13;10.68;;;;;;;19.07;96.23;96804.78;5025389;28;20061;-58
2022/06/14 04:29:15;;;;;;;18.13;10.13;;;;;;;19.24;94.45;96809.22;5025118;28;20504;-58
2022/06/14 04:31:51;;;;;;;11.27;9.80;;;;;;;19.24;93.40;96809.22;5026391;28;20057;-65
2022/06/14 04:34:33;;;;;;;11.05;9.40;;;;;;;19.41;90.07;96816.53;5025667;28;20075;-63
2022/06/14 04:37:10;;;;;;;14.52;10.45;;;;;;;19.57;90.66;96800.97;5026134;28;20053;-64
2022/06/14 04:39:44;;;;;;;14.15;10.60;;;;;;;19.76;90.65;96811.38;5026170;28;20049;-65
2022/06/14 04:42:17;;;;;;;13.30;9.70;;;;;;;19.88;88.88;96813.50;5024500;28;20521;-58
2022/06/14 04:44:54;;;;;;;14.57;10.48;;;;;;;20.12;86.81;96814.94;5024268;28;20399;-57
2022/06/14 04:47:37;;;;;;;14.68;9.55;;;;;;;20.29;84.85;96810.91;5026197;28;20045;-59
2022/06/14 04:50:25;;;;;;;11.98;10.15;;;;;;;20.44;84.03;96826.19;5024393;28;20072;-65
2022/06/14 04:52:57;;;;;;;13.60;10.38;;;;;;;20.52;84.99;96819.97;5023228;28;20049;-59
2022/06/14 04:55:30;;;;;;;11.35;10.27;;;;;;;20.70;84.50;96833.59;5025435;28;20057;-64
2022/06/14 04:58:05;;;;;;;11.88;9.55;;;;;;;20.53;82.54;96778.56;5025388;28;20115;-64
2022/06/14 05:00:36;;;;;;;14.23;10.00;;;;;;;21.10;80.87;96826.50;5025164;28;20056;-65
2022/06/14 05:03:13;;;;;;;12.60;9.95;;;;;;;21.21;80.48;96827.00;5025370;28;20054;-65
2022/06/14 05:05:52;;;;;;;12.45;10.00;;;;;;;21.39;80.41;96827.25;5024111;28;20050;-58
2022/06/14 05:08:30;;;;;;;16.92;10.23;;;;;;;21.53;78.84;96829.66;5025808;28;20050;-65
2022/06/14 05:11:18;;;;;;;15.00;10.18;;;;;;;21.76;78.55;96829.44;5025431;28;20053;-59
2022/06/14 05:14:08;;;;;;;12.18;10.57;;;;;;;21.76;78.50;96801.22;5023668;28;20065;-58
2022/06/14 05:16:42;;;;;;;13.57;9.80;;;;;;;21.93;77.23;96830.09;5025836;28;20049;-58
2022/06/14 05:19:23;;;;;;;11.40;10.13;;;;;;;22.02;77.56;96825.38;5025088;28;20677;-64
2022/06/14 05:22:10;;;;;;;16.27;9.40;;;;;;;21.66;77.88;96791.03;5023578;28;20057;-59
2022/06/14 05:24:38;;;;;;;11.60;9.75;;;;;;;22.11;77.29;96827.53;5025342;28;20061;-59
2022/06/14 05:27:40;;;;;;;10.95;9.98;;;;;;;22.33;76.55;96817.94;5025127;28;20057;-58
2022/06/14 05:30:39;;;;;;;11.10;9.68;;;;;;;22.54;76.48;96821.31;5023240;28;20060;-58
2022/06/14 05:33:11;;;;;;;10.65;9.45;;;;;;;22.71;76.28;96822.75;5024936;28;20311;-59
2022/06/14 05:35:46;;;;;;;11.35;10.25;;;;;;;22.71;76.71;96825.56;5020526;28;20064;-63
2022/06/14 05:38:34;;;;;;;12.43;9.05;;;;;;;22.83;75.77;96821.91;5023896;28;20503;-59
2022/06/14 05:41:07;;;;;;;11.55;10.35;;;;;;;22.78;77.24;96839.47;5024003;28;20049;-61
2022/06/14 05:43:59;;;;;;;11.80;9.98;;;;;;;22.89;75.11;96825.75;5006928;28;20050;-64
2022/06/14 05:46:44;;;;;;;11.45;9.98;;;;;;;23.21;75.27;96822.56;5004288;28;20056;-61
2022/06/14 05:49:20;;;;;;;11.52;10.30;;;;;;;23.43;74.34;96829.06;5004301;28;20108;-65
2022/06/14 05:52:09;;;;;;;11.48;10.43;;;;;;;23.73;73.38;96822.66;5004378;28;20448;-64
2022/06/14 05:55:32;;;;;;;10.75;9.65;;;;;;;23.99;70.70;96818.47;5006097;28;20054;-58
2022/06/14 05:58:24;;;;;;;14.27;9.25;;;;;;;24.20;70.24;96822.47;5020310;28;21216;-62
2022/06/14 06:01:06;;;;;;;14.02;9.80;;;;;;;24.28;69.18;96830.22;5001225;28;20054;-62
2022/06/14 06:03:48;;;;;;;12.02;9.70;;;;;;;24.32;68.35;96833.72;5003497;28;20054;-58
2022/06/14 06:06:30;;;;;;;13.80;8.80;;;;;;;24.44;67.80;96837.69;5018756;28;20057;-61
2022/06/14 06:09:03;;;;;;;13.45;9.60;;;;;;;24.30;68.30;96798.59;5023104;28;20588;-57
2022/06/14 06:12:02;;;;;;;10.57;9.52;;;;;;;24.55;68.14;96833.16;5021029;28;20053;-65
2022/06/14 06:14:37;;;;;;;12.82;9.82;;;;;;;24.89;67.97;96830.13;5023722;28;20060;-70
2022/06/14 06:17:23;;;;;;;12.77;9.80;;;;;;;24.46;65.45;96773.66;5023528;28;20530;-68
2022/06/14 06:20:13;;;;;;;11.48;8.57;;;;;;;25.18;63.59;96827.63;5021947;28;20048;-58
2022/06/14 06:22:53;;;;;;;11.05;9.88;;;;;;;25.43;64.00;96828.59;5021847;28;20571;-68
2022/06/14 06:25:25;;;;;;;9.93;9.00;;;;;;;25.64;63.24;96839.00;5021294;28;20045;-57
2022/06/14 06:28:07;;;;;;;11.43;9.93;;;;;;;25.92;62.88;96832.00;5019851;28;20496;-64
2022/06/14 06:30:46;;;;;;;15.68;10.35;;;;;;;26.16;62.14;96830.06;5020657;28;20056;-65
2022/06/14 06:33:16;;;;;;;12.73;9.75;;;;;;;26.42;60.48;96828.38;5018915;28;20137;-56
2022/06/14 06:35:56;;;;;;;9.82;9.00;;;;;;;26.12;58.39;96781.97;5014802;28;20574;-58
2022/06/14 06:38:57;;;;;;;10.02;9.15;;;;;;;26.45;58.75;96764.91;5017441;28;20519;-56
2022/06/14 06:44:37;;;;;;;10.00;9.15;;;;;;;27.03;51.70;96819.19;5023092;28;20061;-66
2022/06/14 06:47:11;;;;;;;10.75;9.85;;;;;;;27.12;52.96;96830.53;5021254;28;20064;-68
2022/06/14 06:50:06;;;;;;;10.10;9.15;;;;;;;27.40;51.60;96823.38;5023151;28;20057;-57
2022/06/14 06:52:42;;;;;;;9.73;8.93;;;;;;;27.52;52.03;96825.16;5020576;28;20053;-59
2022/06/14 06:55:23;;;;;;;10.73;9.80;;;;;;;27.40;53.30;96823.38;5021141;28;20053;-61
2022/06/14 06:57:53;;;;;;;11.05;9.93;;;;;;;27.30;50.84;96762.13;5019596;28;20569;-57
2022/06/14 07:00:20;;;;;;;12.48;11.40;;;;;;;27.54;50.83;96801.91;5020793;28;20053;-57
2022/06/14 07:02:50;;;;;;;10.77;9.38;;;;;;;27.67;51.89;96820.28;5014235;28;20053;-66
2022/06/14 07:05:18;;;;;;;10.05;9.15;;;;;;;27.44;49.74;96789.06;5037174;28;20475;-74
2022/06/14 07:07:49;;;;;;;10.20;9.20;;;;;;;27.59;49.42;96827.66;5022393;28;20055;-60
2022/06/14 07:10:19;;;;;;;11.73;10.43;;;;;;;27.58;46.01;96825.28;5020840;28;20409;-72
2022/06/14 07:13:12;;;;;;;10.40;9.50;;;;;;;27.84;46.44;96824.22;5022289;28;20065;-59
2022/06/14 07:15:49;;;;;;;11.32;8.63;;;;;;;27.52;44.99;96799.56;5023891;28;20590;-74
2022/06/14 07:18:23;;;;;;;9.65;8.95;;;;;;;27.91;45.87;96825.94;5026977;28;20094;-59
2022/06/14 07:21:05;;;;;;;9.85;8.82;;;;;;;28.21;45.74;96827.50;5025661;28;20045;-55
2022/06/14 07:24:06;;;;;;;12.98;9.93;;;;;;;28.38;45.77;96831.41;5025119;28;20050;-58
2022/06/14 07:26:36;;;;;;;10.43;8.65;;;;;;;28.53;45.82;96820.81;5023410;28;20048;-60
2022/06/14 07:29:09;;;;;;;9.32;8.68;;;;;;;28.72;44.94;96821.34;5025874;28;20057;-62
2022/06/14 07:31:50;;;;;;;10.07;9.13;;;;;;;27.74;46.91;96737.34;5017693;28;20052;-58
2022/06/14 07:34:18;;;;;;;10.50;9.55;;;;;;;28.26;46.56;96801.19;5023915;28;20136;-73
2022/06/14 07:37:29;;;;;;;9.95;9.25;;;;;;;28.50;45.05;96826.72;5023855;28;20049;-59
2022/06/14 07:40:31;;;;;;;9.48;8.77;;;;;;;28.64;46.06;96825.91;5039087;28;20076;-58
2022/06/14 07:43:12;;;;;;;10.43;9.73;;;;;;;28.22;44.84;96754.22;5016749;28;20443;-72
2022/06/14 07:45:46;;;;;;;9.70;8.80;;;;;;;28.91;45.45;96822.66;5013375;28;20087;-71
2022/06/14 07:48:16;;;;;;;10.45;9.45;;;;;;;28.66;45.09;96824.09;5023763;28;20592;-60
2022/06/14 07:50:59;;;;;;;10.52;9.63;;;;;;;28.52;45.31;96824.13;5025817;28;20327;-65
2022/06/14 07:53:30;;;;;;;10.35;9.00;;;;;;;28.29;45.20;96822.19;5022235;28;20088;-69
2022/06/14 07:56:09;;;;;;;9.77;8.88;;;;;;;28.61;43.83;96821.19;5023866;28;20041;-73
2022/06/14 07:58:51;;;;;;;9.95;9.13;;;;;;;27.27;44.37;96583.91;5023381;28;20045;-66
2022/06/14 08:01:31;;;;;;;9.38;8.57;;;;;;;28.20;44.47;96837.31;5023863;28;20046;-68
2022/06/14 08:04:22;;;;;;;9.75;8.90;;;;;;;28.02;44.77;96826.13;5025429;28;20050;-66
2022/06/14 08:06:55;;;;;;;10.88;9.95;;;;;;;27.19;45.37;96770.41;5024157;28;20045;-66
2022/06/14 08:09:34;;;;;;;;;;;;;;;28.23;45.57;96824.97;5025937;28;20064;-65
2022/06/14 08:12:07;;;;;;;10.02;9.13;;;;;;;28.44;44.37;96825.81;5026389;28;20034;-67
2022/06/14 08:14:43;;;;;;;9.57;8.77;;;;;;;28.59;42.95;96835.13;5026721;28;20591;-65
2022/06/14 08:17:17;;;;;;;9.57;8.68;;;;;;;28.81;43.15;96826.91;5026049;28;20490;-58
2022/06/14 08:19:51;;;;;;;;;;;;;;;28.65;43.72;96827.44;5026515;28;20049;-66
2022/06/14 08:22:25;;;;;;;10.15;9.25;;;;;;;28.88;44.25;96832.22;5026178;28;19931;-65
2022/06/14 08:24:59;;;;;;;10.07;9.00;;;;;;;28.12;42.25;96751.47;5025326;28;20076;-58
2022/06/14 08:27:40;;;;;;;10.00;9.02;;;;;;;28.99;41.92;96830.28;5023567;28;20516;-66
2022/06/14 08:30:14;;;;;;;9.38;8.48;;;;;;;29.09;41.67;96828.13;5025946;28;20503;-58
2022/06/14 08:32:49;;;;;;;9.45;8.52;;;;;;;29.17;40.23;96829.25;5024587;28;20065;-55
2022/06/14 08:35:32;;;;;;;9.00;8.18;;;;;;;29.09;41.08;96788.16;5025710;28;20065;-63
2022/06/14 08:38:08;;;;;;;10.25;9.20;;;;;;;29.55;40.80;96826.09;5025494;28;21162;-56
2022/06/14 08:41:26;;;;;;;9.50;8.63;;;;;;;28.67;40.28;96820.00;5025664;28;20115;-64
2022/06/14 08:43:59;;;;;;;10.18;9.38;;;;;;;28.82;42.13;96819.94;5022810;28;20053;-64
2022/06/14 08:47:10;;;;;;;10.45;9.55;;;;;;;28.59;42.74;96823.75;5023542;28;20058;-64
2022/06/14 08:49:53;;;;;;;15.18;11.32;;;;;;;28.90;42.84;96839.00;5024357;28;20084;-56
2022/06/14 08:52:47;;;;;;;10.43;9.32;;;;;;;29.08;43.15;96821.66;5024062;28;20049;-60
2022/06/14 08:55:19;;;;;;;10.00;9.17;;;;;;;29.45;42.50;96821.81;5025373;28;20053;-65
2022/06/14 08:58:04;;;;;;;9.25;8.43;;;;;;;29.89;40.31;96824.44;5024246;28;20298;-57
2022/06/14 09:00:51;;;;;;;9.82;8.82;;;;;;;30.12;40.31;96818.44;5023465;28;20544;-66
2022/06/14 09:03:18;;;;;;;18.40;13.35;;;;;;;30.24;39.92;96820.13;5023044;28;20053;-58
2022/06/14 09:06:00;;;;;;;10.20;9.20;;;;;;;29.49;39.76;96816.69;5024533;28;20054;-65
2022/06/14 09:08:38;;;;;;;10.15;9.15;;;;;;;29.61;40.85;96812.69;5024319;28;20068;-64
2022/06/14 09:11:26;;;;;;;9.20;8.50;;;;;;;29.66;39.79;96809.13;5023479;28;20138;-57
2022/06/14 09:14:31;;;;;;;9.07;8.32;;;;;;;30.29;38.78;96807.97;5024966;28;20501;-56
2022/06/14 09:17:22;;;;;;;9.82;9.13;;;;;;;30.94;38.54;96809.75;5024888;28;20060;-59
2022/06/14 09:20:14;;;;;;;10.93;9.98;;;;;;;30.79;39.11;96797.69;5025073;28;20488;-57
2022/06/14 09:23:03;;;;;;;10.52;9.57;;;;;;;30.57;39.58;96785.31;5024936;28;20137;-57
2022/06/14 09:26:17;;;;;;;10.57;9.65;;;;;;;30.49;38.92;96807.84;5024674;28;20061;-64
2022/06/14 09:28:46;;;;;;;9.85;9.05;;;;;;;30.54;38.64;96804.25;5024683;28;20053;-65
2022/06/14 09:31:46;;;;;;;9.70;7.60;;;;;;;30.89;38.37;96809.72;5024077;28;20053;-64
2022/06/14 09:34:43;;;;;;;8.13;7.53;;;;;;;29.52;42.25;96809.97;5023792;28;20049;-58
2022/06/14 09:37:20;;;;;;;9.85;8.07;;;;;;;29.50;43.65;96801.13;5024186;28;20053;-55
2022/06/14 09:40:01;;;;;;;8.02;7.43;;;;;;;28.20;44.84;96790.97;5023980;28;20057;-63
2022/06/14 09:42:46;;;;;;;10.75;8.02;;;;;;;27.99;43.58;96799.44;5024569;28;20539;-64
2022/06/14 09:45:32;;;;;;;9.98;8.55;;;;;;;28.30;46.31;96795.25;5024545;28;20057;-57
2022/06/14 09:48:49;;;;;;;9.10;8.27;;;;;;;28.04;46.89;96801.56;5024466;28;20053;-57
2022/06/14 09:51:22;;;;;;;9.30;8.50;;;;;;;28.18;44.19;96797.91;5021443;28;20061;-64
2022/06/14 09:54:01;;;;;;;7.68;7.18;;;;;;;28.42;40.00;96792.13;5004692;28;20053;-64
2022/06/14 09:56:45;;;;;;;8.60;7.90;;;;;;;28.95;37.85;96803.25;5023392;28;20150;-56
2022/06/14 09:59:12;;;;;;;9.38;8.60;;;;;;;29.18;39.22;96805.16;5010986;28;20057;-57
2022/06/14 10:01:53;;;;;;;8.80;8.10;;;;;;;29.34;39.21;96810.28;5004522;28;20130;-55
2022/06/14 10:04:49;;;;;;;8.20;7.55;;;;;;;28.98;40.37;96823.03;5004158;28;20058;-60
2022/06/14 10:07:37;;;;;;;7.68;6.95;;;;;;;28.36;39.45;96833.19;5002798;28;20065;-64
2022/06/14 10:10:25;;;;;;;7.63;7.00;;;;;;;28.13;39.75;96877.59;5004387;28;20062;-59
2022/06/14 10:13:30;;;;;;;7.25;6.60;;;;;;;27.78;41.94;96817.66;5004527;28;20058;-56
2022/06/14 10:16:20;;;;;;;7.85;7.25;;;;;;;27.46;43.56;96807.19;5022779;28;20249;-64
2022/06/14 10:19:05;;;;;;;8.23;7.45;;;;;;;27.24;44.22;96809.56;5022250;28;20491;-64
2022/06/14 10:22:06;;;;;;;8.00;7.20;;;;;;;26.73;44.93;96811.81;5022515;28;20060;-58
2022/06/14 10:24:45;;;;;;;8.00;7.40;;;;;;;26.02;46.99;96808.03;5023834;28;20061;-65
2022/06/14 10:30:28;;;;;;;8.43;7.68;;;;;;;25.17;49.90;96799.72;5023375;28;20053;-57
2022/06/14 10:33:21;;;;;;;8.55;7.10;;;;;;;25.27;49.83;96810.63;5023391;28;20045;-64
2022/06/14 10:36:12;;;;;;;7.93;6.97;;;;;;;25.13;49.95;96816.91;5023101;28;20573;-56
2022/06/14 10:39:06;;;;;;;7.88;7.18;;;;;;;25.22;50.43;96813.28;5024015;28;20061;-64
2022/06/14 10:41:41;;;;;;;8.55;7.60;;;;;;;25.35;51.49;96816.00;5021748;28;20056;-64
2022/06/14 10:44:18;;;;;;;9.18;7.80;;;;;;;25.20;52.25;96827.94;5021830;28;20058;-63
2022/06/14 10:47:01;;;;;;;7.40;6.80;;;;;;;25.19;53.15;96815.03;5023338;28;20839;-63
2022/06/14 10:49:49;;;;;;;7.43;6.73;;;;;;;25.18;52.90;96813.44;5023596;28;20179;-59
2022/06/14 10:52:30;;;;;;;9.32;8.07;;;;;;;25.44;51.27;96813.94;5021937;28;20124;-57
2022/06/14 10:55:18;;;;;;;8.13;7.13;;;;;;;25.50;50.80;96805.59;5023648;28;20041;-57
2022/06/14 10:58:15;;;;;;;7.72;7.05;;;;;;;24.76;52.77;96729.50;5021795;28;20124;-57
2022/06/14 11:00:47;;;;;;;9.02;7.30;;;;;;;25.37;53.21;96816.31;5033995;28;20049;-59
2022/06/14 11:04:02;;;;;;;10.27;7.18;;;;;;;25.29;54.50;96810.91;5023379;28;20053;-65
2022/06/14 11:06:41;;;;;;;7.03;6.55;;;;;;;25.09;55.77;96815.47;5000265;28;20134;-64
2022/06/14 11:09:20;;;;;;;9.68;6.90;;;;;;;25.31;55.91;96816.91;5022194;28;20155;-58
2022/06/14 11:12:06;;;;;;;8.05;7.22;;;;;;;25.43;55.49;96814.41;5020145;28;20547;-65
2022/06/14 11:15:01;;;;;;;9.55;7.40;;;;;;;25.54;55.99;96829.69;5019009;28;20103;-60
2022/06/14 11:17:48;;;;;;;14.15;7.22;;;;;;;25.44;56.20;96818.81;5015427;28;20091;-61
2022/06/14 11:20:31;;;;;;;8.52;7.72;;;;;;;25.24;56.46;96827.78;5020409;28;20079;-55
2022/06/14 11:23:14;;;;;;;8.07;7.33;;;;;;;25.20;55.96;96821.47;5020752;28;20053;-57
2022/06/14 11:26:02;;;;;;;7.43;6.72;;;;;;;25.05;59.01;96787.28;5017066;28;20056;-61
2022/06/14 11:28:50;;;;;;;9.20;7.78;;;;;;;25.48;57.52;96819.47;5018615;28;20057;-63
2022/06/14 11:31:32;;;;;;;7.78;7.03;;;;;;;25.57;55.24;96805.25;5034268;28;20064;-58
2022/06/14 11:34:17;;;;;;;7.80;6.68;;;;;;;25.65;56.16;96806.50;5019765;28;20045;-60
2022/06/14 11:37:30;;;;;;;7.97;7.20;;;;;;;25.91;55.99;96802.81;5015716;28;20107;-70
2022/06/14 11:40:10;;;;;;;11.13;7.32;;;;;;;25.65;56.16;96753.38;5021224;28;20076;-70
2022/06/14 11:43:06;;;;;;;8.38;7.57;;;;;;;26.10;56.83;96780.84;5019414;28;20065;-57
2022/06/14 11:45:36;;;;;;;7.97;7.10;;;;;;;26.26;56.11;96783.31;5021780;28;20053;-68
2022/06/14 11:48:15;;;;;;;8.02;7.32;;;;;;;26.41;55.59;96787.03;5020383;28;20120;-63
2022/06/14 11:51:07;;;;;;;8.30;7.15;;;;;;;26.72;55.51;96781.84;5003178;28;20050;-67
2022/06/14 11:53:49;;;;;;;7.63;7.03;;;;;;;26.86;54.88;96781.09;5016144;28;20049;-61
2022/06/14 11:56:22;;;;;;;8.80;8.10;;;;;;;27.00;54.83;96777.53;5020586;28;20091;-61
2022/06/14 11:58:50;;;;;;;9.20;7.50;;;;;;;27.34;53.77;96776.97;5019047;28;20057;-55
2022/06/14 12:01:37;;;;;;;7.53;7.03;;;;;;;26.82;53.14;96717.97;5019428;28;20092;-55
2022/06/14 12:04:41;;;;;;;7.70;7.03;;;;;;;27.44;53.10;96780.53;5023033;28;20050;-61
2022/06/14 12:07:13;;;;;;;7.55;7.05;;;;;;;27.56;54.21;96787.97;5025094;28;20061;-62
2022/06/14 12:09:58;;;;;;;7.47;6.97;;;;;;;27.60;53.09;96789.34;5025853;28;20052;-57
2022/06/14 12:12:48;;;;;;;8.20;7.43;;;;;;;27.56;53.25;96737.53;5023854;28;20131;-62
2022/06/14 12:15:30;;;;;;;7.80;7.30;;;;;;;27.94;51.79;96780.19;5024869;28;20061;-56
2022/06/14 12:18:01;;;;;;;7.50;7.00;;;;;;;27.56;52.21;96685.53;5026589;28;20495;-65
2022/06/14 12:20:34;;;;;;;8.13;7.53;;;;;;;28.08;51.69;96693.94;5025091;28;20059;-54
2022/06/14 12:23:19;;;;;;;7.85;7.30;;;;;;;29.07;51.45;96779.34;5025102;28;20057;-58
2022/06/14 12:26:34;;;;;;;7.63;7.03;;;;;;;29.63;48.61;96775.84;5023912;28;20081;-60
2022/06/14 12:29:24;;;;;;;8.82;8.02;;;;;;;30.27;47.04;96773.38;5024190;28;20115;-62
2022/06/14 12:32:02;;;;;;;7.85;7.18;;;;;;;30.25;45.76;96781.69;5035263;28;20053;-64
2022/06/14 12:34:53;;;;;;;7.68;7.18;;;;;;;29.78;45.25;96776.56;5020411;28;20085;-66
2022/06/14 12:37:25;;;;;;;8.55;7.75;;;;;;;30.05;46.46;96778.88;5021234;28;20050;-57